createdAt,value
2023-04-27T00:01:42.215Z,5.28
2023-04-27T00:04:09.838Z,4.28
2023-04-27T00:06:36.869Z,6.60
2023-04-27T00:09:04.636Z,5.28
2023-04-27T00:11:31.854Z,5.45
2023-04-27T00:13:59.035Z,4.50
2023-04-27T00:16:26.337Z,4.53
2023-04-27T00:18:53.414Z,3.03
2023-04-27T00:21:20.909Z,3.65
2023-04-27T00:23:47.936Z,3.70
2023-04-27T00:26:15.014Z,4.13
2023-04-27T00:28:41.910Z,3.38
2023-04-27T00:31:08.864Z,3.20
2023-04-27T00:33:36.554Z,5.50
2023-04-27T00:36:03.602Z,3.33
2023-04-27T00:38:30.898Z,6.57
2023-04-27T00:41:06.681Z,5.78
2023-04-27T00:43:41.337Z,4.00
2023-04-27T00:46:09.343Z,5.00
2023-04-27T00:48:36.808Z,6.78
2023-04-27T00:51:03.954Z,5.63
2023-04-27T00:53:32.180Z,3.55
2023-04-27T00:55:59.125Z,6.97
2023-04-27T00:58:26.382Z,3.33
2023-04-27T01:00:53.789Z,7.00
2023-04-27T01:03:21.508Z,3.88
2023-04-27T01:05:48.492Z,3.88
2023-04-27T01:08:15.862Z,7.97
2023-04-27T01:10:43.262Z,5.93
2023-04-27T01:13:10.825Z,5.85
2023-04-27T01:15:37.867Z,3.47
2023-04-27T01:18:04.968Z,5.30
2023-04-27T01:20:32.529Z,7.38
2023-04-27T01:22:59.926Z,5.60
2023-04-27T01:25:27.074Z,3.75
2023-04-27T01:27:54.513Z,4.78
2023-04-27T01:30:22.777Z,3.75
2023-04-27T01:32:50.486Z,2.45
2023-04-27T01:35:17.731Z,4.85
2023-04-27T01:37:44.743Z,5.80
2023-04-27T01:40:12.083Z,5.18
2023-04-27T01:42:39.525Z,4.00
2023-04-27T01:45:07.292Z,7.50
2023-04-27T01:47:34.696Z,6.22
2023-04-27T01:50:02.342Z,4.28
2023-04-27T01:52:29.574Z,6.05
2023-04-27T01:54:57.008Z,4.65
2023-04-27T01:57:23.970Z,4.40
2023-04-27T01:59:51.399Z,3.90
2023-04-27T02:02:18.415Z,4.50
2023-04-27T02:04:45.622Z,3.42
2023-04-27T02:07:12.656Z,4.82
2023-04-27T02:09:39.661Z,4.13
2023-04-27T02:12:06.911Z,2.80
2023-04-27T02:14:34.110Z,3.28
2023-04-27T02:17:01.096Z,3.33
2023-04-27T02:19:28.096Z,3.70
2023-04-27T02:21:55.041Z,4.38
2023-04-27T02:24:21.927Z,5.10
2023-04-27T02:26:48.887Z,2.75
2023-04-27T02:29:17.227Z,2.47
2023-04-27T02:31:45.068Z,6.43
2023-04-27T02:34:12.583Z,4.95
2023-04-27T02:36:39.509Z,6.53
2023-04-27T02:39:06.421Z,8.85
2023-04-27T02:41:33.449Z,6.90
2023-04-27T02:44:00.473Z,5.43
2023-04-27T02:46:27.516Z,7.18
2023-04-27T02:48:55.882Z,6.60
2023-04-27T02:51:23.072Z,5.57
2023-04-27T02:53:50.228Z,4.20
2023-04-27T02:56:17.456Z,4.95
2023-04-27T02:58:45.306Z,3.85
2023-04-27T03:01:12.814Z,6.28
2023-04-27T03:03:40.136Z,4.82
2023-04-27T03:06:07.288Z,5.25
2023-04-27T03:08:34.256Z,7.10
2023-04-27T03:11:01.302Z,4.28
2023-04-27T03:13:28.604Z,4.75
2023-04-27T03:15:55.862Z,4.35
2023-04-27T03:18:23.124Z,4.00
2023-04-27T03:20:50.145Z,3.47
2023-04-27T03:23:17.175Z,2.53
2023-04-27T03:25:44.278Z,5.07
2023-04-27T03:28:11.438Z,5.30
2023-04-27T03:30:41.084Z,5.43
2023-04-27T03:33:08.084Z,4.07
2023-04-27T03:35:35.031Z,3.40
2023-04-27T03:38:02.196Z,3.33
2023-04-27T03:40:29.189Z,3.20
2023-04-27T03:42:57.998Z,4.85
2023-04-27T03:45:26.384Z,3.85
2023-04-27T03:47:53.546Z,4.28
2023-04-27T03:50:20.763Z,3.85
2023-04-27T03:52:47.705Z,7.75
2023-04-27T03:55:14.741Z,4.32
2023-04-27T03:57:41.990Z,6.05
2023-04-27T04:00:11.764Z,3.28
2023-04-27T04:02:39.598Z,4.95
2023-04-27T04:05:06.964Z,6.40
2023-04-27T04:07:33.920Z,3.30
2023-04-27T04:10:00.996Z,6.65
2023-04-27T04:12:27.927Z,6.88
2023-04-27T04:14:54.911Z,5.45
2023-04-27T04:17:22.053Z,5.35
2023-04-27T04:19:49.213Z,7.68
2023-04-27T04:22:16.391Z,4.25
2023-04-27T04:24:43.932Z,6.10
2023-04-27T04:27:11.044Z,6.78
2023-04-27T04:29:39.206Z,5.60
2023-04-27T04:32:07.778Z,5.03
2023-04-27T04:34:34.803Z,8.07
2023-04-27T04:37:02.290Z,6.90
2023-04-27T04:39:33.324Z,5.70
2023-04-27T04:42:00.331Z,5.72
2023-04-27T04:44:27.482Z,4.80
2023-04-27T04:46:55.815Z,4.40
2023-04-27T04:49:22.903Z,3.80
2023-04-27T04:51:49.910Z,3.20
2023-04-27T04:54:16.822Z,4.07
2023-04-27T04:56:43.776Z,4.00
2023-04-27T04:59:10.735Z,4.00
2023-04-27T05:01:38.044Z,4.60
2023-04-27T05:04:05.385Z,3.88
2023-04-27T05:06:32.737Z,3.35
2023-04-27T05:08:59.808Z,3.55
2023-04-27T05:11:27.057Z,3.90
2023-04-27T05:13:54.212Z,4.35
2023-04-27T05:16:21.741Z,3.40
2023-04-27T05:18:48.717Z,5.55
2023-04-27T05:21:16.727Z,4.05
2023-04-27T05:23:43.730Z,2.97
2023-04-27T05:26:18.182Z,4.20
2023-04-27T05:28:47.533Z,7.05
2023-04-27T05:31:14.596Z,5.63
2023-04-27T05:33:41.751Z,4.47
2023-04-27T05:36:09.513Z,3.88
2023-04-27T05:38:40.196Z,3.67
2023-04-27T05:41:07.617Z,6.68
2023-04-27T05:43:35.441Z,4.20
2023-04-27T05:46:02.359Z,5.60
2023-04-27T05:48:29.544Z,4.07
2023-04-27T05:51:03.843Z,4.15
2023-04-27T05:53:31.052Z,7.05
2023-04-27T05:55:59.368Z,5.97
2023-04-27T05:58:26.850Z,5.95
2023-04-27T06:00:54.607Z,6.97
2023-04-27T06:03:21.974Z,6.55
2023-04-27T06:05:58.987Z,6.63
2023-04-27T06:08:27.303Z,4.35
2023-04-27T06:10:54.678Z,4.00
2023-04-27T06:13:22.057Z,4.40
2023-04-27T06:15:49.132Z,3.70
2023-04-27T06:18:16.595Z,5.97
2023-04-27T06:20:43.561Z,6.72
2023-04-27T06:23:10.569Z,4.80
2023-04-27T06:25:38.975Z,6.65
2023-04-27T06:28:06.395Z,4.68
2023-04-27T06:30:33.346Z,5.25
2023-04-27T06:33:00.428Z,4.43
2023-04-27T06:35:27.607Z,5.72
2023-04-27T06:37:58.837Z,4.15
2023-04-27T06:40:27.064Z,6.45
2023-04-27T06:42:54.609Z,6.70
2023-04-27T06:45:21.852Z,4.00
2023-04-27T06:47:49.023Z,5.55
2023-04-27T06:50:16.589Z,6.45
2023-04-27T06:52:43.986Z,6.18
2023-04-27T06:55:11.164Z,6.60
2023-04-27T06:57:38.374Z,5.32
2023-04-27T07:00:05.918Z,5.75
2023-04-27T07:02:32.983Z,5.53
2023-04-27T07:05:00.333Z,7.88
2023-04-27T07:07:27.448Z,6.25
2023-04-27T07:09:54.585Z,7.82
2023-04-27T07:12:21.495Z,5.20
2023-04-27T07:14:50.808Z,6.22
2023-04-27T07:17:18.074Z,6.40
2023-04-27T07:19:45.036Z,6.60
2023-04-27T07:22:12.249Z,6.00
2023-04-27T07:24:39.276Z,7.00
2023-04-27T07:27:06.433Z,7.35
2023-04-27T07:29:34.290Z,6.25
2023-04-27T07:32:01.624Z,7.15
2023-04-27T07:34:35.257Z,4.95
2023-04-27T07:37:09.334Z,4.80
2023-04-27T07:39:36.833Z,6.80
2023-04-27T07:42:04.386Z,15.13
2023-04-27T07:44:31.436Z,10.00
2023-04-27T07:46:58.680Z,10.93
2023-04-27T07:49:26.445Z,5.40
2023-04-27T07:51:53.415Z,7.10
2023-04-27T07:54:20.839Z,5.15
2023-04-27T07:56:47.780Z,8.15
2023-04-27T07:59:15.630Z,8.20
2023-04-27T08:01:42.960Z,7.03
2023-04-27T08:04:10.133Z,9.35
2023-04-27T08:06:38.043Z,7.20
2023-04-27T08:09:05.843Z,7.95
2023-04-27T08:11:32.791Z,8.93
2023-04-27T08:13:59.845Z,8.75
2023-04-27T08:16:26.891Z,8.85
2023-04-27T08:18:54.044Z,11.45
2023-04-27T08:21:20.965Z,11.48
2023-04-27T08:23:48.116Z,10.18
2023-04-27T08:26:16.734Z,8.18
2023-04-27T08:28:43.898Z,10.70
2023-04-27T08:31:11.006Z,9.20
2023-04-27T08:33:37.964Z,11.88
2023-04-27T08:36:05.305Z,6.82
2023-04-27T08:38:35.013Z,11.60
2023-04-27T08:41:10.884Z,11.38
2023-04-27T08:43:50.302Z,8.25
2023-04-27T08:46:21.596Z,9.07
2023-04-27T08:48:52.298Z,8.70
2023-04-27T08:51:20.423Z,8.18
2023-04-27T08:53:58.255Z,10.57
2023-04-27T08:56:28.035Z,10.50
2023-04-27T08:58:57.094Z,9.07
2023-04-27T09:01:26.370Z,9.65
2023-04-27T09:04:02.134Z,8.30
2023-04-27T09:06:38.344Z,10.30
2023-04-27T09:09:07.053Z,12.82
2023-04-27T09:11:39.405Z,7.32
2023-04-27T09:14:21.215Z,10.27
2023-04-27T09:16:59.700Z,9.98
2023-04-27T09:19:31.078Z,8.73
2023-04-27T09:22:09.389Z,10.48
2023-04-27T09:24:37.026Z,9.30
2023-04-27T09:27:05.382Z,9.27
2023-04-27T09:29:37.747Z,9.60
2023-04-27T09:32:19.210Z,9.15
2023-04-27T09:34:46.790Z,7.43
2023-04-27T09:37:15.037Z,8.40
2023-04-27T09:39:43.209Z,8.07
2023-04-27T09:42:12.546Z,12.93
2023-04-27T09:44:40.729Z,8.63
2023-04-27T09:47:08.449Z,9.68
2023-04-27T09:49:36.446Z,8.85
2023-04-27T09:52:04.291Z,9.20
2023-04-27T09:54:33.802Z,10.48
2023-04-27T09:57:16.043Z,6.38
2023-04-27T10:00:11.156Z,10.23
2023-04-27T10:03:02.579Z,9.50
2023-04-27T10:05:52.691Z,11.55
2023-04-27T10:08:20.865Z,7.78
2023-04-27T10:10:51.483Z,10.30
2023-04-27T10:13:26.615Z,12.00
2023-04-27T10:15:54.435Z,6.43
2023-04-27T10:18:31.513Z,12.73
2023-04-27T10:21:10.976Z,8.48
2023-04-27T10:23:55.252Z,11.73
2023-04-27T10:26:27.571Z,13.80
2023-04-27T10:29:16.552Z,9.23
2023-04-27T10:31:48.925Z,6.10
2023-04-27T10:34:21.392Z,11.10
2023-04-27T10:36:48.777Z,9.35
2023-04-27T10:39:29.878Z,11.20
2023-04-27T10:42:03.334Z,7.97
2023-04-27T10:44:32.639Z,8.80
2023-04-27T10:47:16.854Z,12.50
2023-04-27T10:49:44.310Z,8.73
2023-04-27T10:52:11.640Z,9.65
2023-04-27T10:54:39.914Z,11.00
2023-04-27T10:57:11.113Z,15.35
2023-04-27T10:59:52.855Z,10.68
2023-04-27T11:02:27.708Z,9.13
2023-04-27T11:04:56.326Z,10.98
2023-04-27T11:07:28.234Z,10.65
2023-04-27T11:09:55.822Z,9.73
2023-04-27T11:12:23.270Z,9.15
2023-04-27T11:14:50.544Z,12.23
2023-04-27T11:17:27.694Z,9.93
2023-04-27T11:19:54.639Z,10.63
2023-04-27T11:22:21.914Z,8.27
2023-04-27T11:24:50.113Z,10.65
2023-04-27T11:27:18.272Z,12.93
2023-04-27T11:29:45.800Z,12.15
2023-04-27T11:32:23.074Z,11.05
2023-04-27T11:34:53.477Z,12.05
2023-04-27T11:37:24.186Z,9.65
2023-04-27T11:39:52.001Z,12.07
2023-04-27T11:42:28.815Z,10.95
2023-04-27T11:45:03.182Z,11.95
2023-04-27T11:47:31.830Z,12.10
2023-04-27T11:50:02.523Z,11.00
2023-04-27T11:52:31.957Z,10.95
2023-04-27T11:55:00.594Z,10.32
2023-04-27T11:57:29.560Z,18.45
2023-04-27T12:00:00.631Z,11.32
2023-04-27T12:02:28.910Z,9.55
2023-04-27T12:04:56.238Z,12.23
2023-04-27T12:07:23.711Z,10.25
2023-04-27T12:09:50.643Z,12.23
2023-04-27T12:12:22.519Z,11.32
2023-04-27T12:14:50.677Z,11.60
2023-04-27T12:17:18.141Z,7.43
2023-04-27T12:19:45.201Z,11.57
2023-04-27T12:22:12.167Z,10.52
2023-04-27T12:24:39.639Z,10.10
2023-04-27T12:27:08.103Z,12.38
2023-04-27T12:29:35.106Z,13.15
2023-04-27T12:32:02.105Z,10.35
2023-04-27T12:34:29.086Z,12.93
2023-04-27T12:36:56.357Z,15.90
2023-04-27T12:39:25.462Z,15.00
2023-04-27T12:41:53.916Z,15.95
2023-04-27T12:44:21.518Z,14.85
2023-04-27T12:46:49.178Z,14.77
2023-04-27T12:49:16.611Z,14.52
2023-04-27T12:51:43.672Z,13.18
2023-04-27T12:54:12.725Z,13.70
2023-04-27T12:56:40.137Z,14.75
2023-04-27T12:59:07.166Z,13.07
2023-04-27T13:01:34.251Z,14.32
2023-04-27T13:04:03.866Z,14.10
2023-04-27T13:06:32.155Z,14.73
2023-04-27T13:09:00.149Z,13.57
2023-04-27T13:11:27.504Z,18.17
2023-04-27T13:13:55.390Z,15.88
2023-04-27T13:16:25.532Z,15.55
2023-04-27T13:18:53.962Z,15.20
2023-04-27T13:21:21.372Z,12.40
2023-04-27T13:23:49.651Z,12.95
2023-04-27T13:26:17.179Z,15.57
2023-04-27T13:28:44.092Z,17.23
2023-04-27T13:31:11.435Z,17.05
2023-04-27T13:33:43.143Z,13.00
2023-04-27T13:36:11.563Z,15.73
2023-04-27T13:38:38.626Z,16.27
2023-04-27T13:41:06.358Z,13.05
2023-04-27T13:43:33.642Z,14.48
2023-04-27T13:46:01.684Z,14.48
2023-04-27T13:48:29.332Z,16.75
2023-04-27T13:50:56.723Z,15.52
2023-04-27T13:53:25.997Z,16.92
2023-04-27T13:55:57.588Z,15.93
2023-04-27T13:58:26.295Z,17.15
2023-04-27T14:00:54.029Z,18.00
2023-04-27T14:03:21.638Z,15.38
2023-04-27T14:05:51.050Z,21.55
2023-04-27T14:08:18.823Z,17.00
2023-04-27T14:10:46.136Z,18.67
2023-04-27T14:13:13.694Z,19.15
2023-04-27T14:15:41.605Z,16.33
2023-04-27T14:18:09.829Z,12.13
2023-04-27T14:20:38.347Z,17.83
2023-04-27T14:23:06.494Z,17.63
2023-04-27T14:25:34.822Z,16.27
2023-04-27T14:28:04.217Z,19.60
2023-04-27T14:30:36.050Z,16.35
2023-04-27T14:33:03.617Z,15.02
2023-04-27T14:35:34.578Z,17.15
2023-04-27T14:38:04.629Z,17.95
2023-04-27T14:40:32.300Z,18.50
2023-04-27T14:42:59.757Z,18.15
2023-04-27T14:45:33.546Z,23.30
2023-04-27T14:48:04.820Z,19.80
2023-04-27T14:50:32.243Z,15.73
2023-04-27T14:52:59.143Z,19.58
2023-04-27T14:55:26.279Z,16.30
2023-04-27T14:57:53.304Z,20.13
2023-04-27T15:00:20.424Z,22.20
2023-04-27T15:02:47.642Z,23.85
2023-04-27T15:05:14.971Z,17.65
2023-04-27T15:07:42.394Z,22.70
2023-04-27T15:10:09.802Z,20.27
2023-04-27T15:12:36.829Z,22.50
2023-04-27T15:15:03.999Z,20.38
2023-04-27T15:17:31.095Z,23.67
2023-04-27T15:19:58.212Z,23.83
2023-04-27T15:22:25.200Z,18.50
2023-04-27T15:24:54.239Z,21.73
2023-04-27T15:27:21.139Z,21.25
2023-04-27T15:29:48.749Z,23.48
2023-04-27T15:32:16.492Z,24.52
2023-04-27T15:34:44.890Z,23.33
2023-04-27T15:37:12.467Z,22.23
2023-04-27T15:39:39.669Z,25.85
2023-04-27T15:42:06.858Z,22.63
2023-04-27T15:44:33.916Z,25.52
2023-04-27T15:47:00.922Z,32.63
2023-04-27T15:49:28.393Z,26.73
2023-04-27T15:51:55.561Z,33.40
2023-04-27T15:54:22.547Z,26.88
2023-04-27T15:56:49.755Z,25.38
2023-04-27T15:59:16.898Z,26.30
2023-04-27T16:01:44.007Z,29.90
2023-04-27T16:04:11.200Z,34.83
2023-04-27T16:06:38.694Z,35.75
2023-04-27T16:09:09.751Z,35.55
2023-04-27T16:11:37.459Z,30.25
2023-04-27T16:14:04.571Z,34.47
2023-04-27T16:16:32.731Z,35.67
2023-04-27T16:18:59.772Z,35.05
2023-04-27T16:21:28.165Z,35.78
2023-04-27T16:23:55.101Z,38.10
2023-04-27T16:26:22.076Z,33.88
2023-04-27T16:28:49.095Z,32.50
2023-04-27T16:31:16.748Z,31.75
2023-04-27T16:33:43.664Z,36.30
2023-04-27T16:36:11.014Z,30.48
2023-04-27T16:38:39.275Z,37.83
2023-04-27T16:41:06.573Z,38.97
2023-04-27T16:43:34.021Z,28.20
2023-04-27T16:46:01.213Z,34.95
2023-04-27T16:48:28.683Z,35.13
2023-04-27T16:50:56.274Z,40.13
2023-04-27T16:53:23.725Z,36.80
2023-04-27T16:55:50.700Z,29.45
2023-04-27T16:58:17.665Z,30.23
2023-04-27T17:00:44.665Z,31.30
2023-04-27T17:03:11.715Z,31.90
2023-04-27T17:05:38.924Z,35.85
2023-04-27T17:08:06.632Z,36.65
2023-04-27T17:10:33.658Z,35.50
2023-04-27T17:13:00.621Z,38.13
2023-04-27T17:15:28.747Z,33.65
2023-04-27T17:17:56.330Z,37.05
2023-04-27T17:20:23.342Z,41.30
2023-04-27T17:22:50.271Z,32.42
2023-04-27T17:25:17.738Z,35.30
2023-04-27T17:27:44.730Z,39.22
2023-04-27T17:30:12.123Z,43.03
2023-04-27T17:32:39.353Z,39.38
2023-04-27T17:35:07.035Z,43.92
2023-04-27T17:37:34.036Z,38.50
2023-04-27T17:40:00.976Z,37.28
2023-04-27T17:42:28.258Z,36.05
2023-04-27T17:44:55.748Z,33.15
2023-04-27T17:47:26.118Z,40.42
2023-04-27T17:49:53.045Z,35.08
2023-04-27T17:52:20.042Z,34.28
2023-04-27T17:54:48.202Z,36.10
2023-04-27T17:57:16.496Z,31.48
2023-04-27T17:59:43.535Z,35.78
2023-04-27T18:02:10.556Z,41.40
2023-04-27T18:04:37.724Z,43.78
2023-04-27T18:07:04.824Z,36.30
2023-04-27T18:09:33.122Z,35.65
2023-04-27T18:12:00.385Z,37.97
2023-04-27T18:14:27.327Z,42.38
2023-04-27T18:16:55.008Z,42.47
2023-04-27T18:19:22.519Z,37.13
2023-04-27T18:21:49.809Z,36.30
2023-04-27T18:24:16.808Z,39.92
2023-04-27T18:26:43.762Z,42.58
2023-04-27T18:29:10.706Z,37.63
2023-04-27T18:31:38.231Z,40.10
2023-04-27T18:34:05.167Z,37.58
2023-04-27T18:36:32.406Z,34.55
2023-04-27T18:38:59.754Z,39.58
2023-04-27T18:41:26.884Z,41.72
2023-04-27T18:43:53.787Z,48.10
2023-04-27T18:46:21.301Z,37.90
2023-04-27T18:48:48.336Z,42.03
2023-04-27T18:51:15.227Z,41.75
2023-04-27T18:53:42.369Z,35.20
2023-04-27T18:56:10.326Z,35.80
2023-04-27T18:58:37.294Z,43.13
2023-04-27T19:01:04.795Z,35.55
2023-04-27T19:03:32.130Z,32.60
2023-04-27T19:06:02.064Z,39.65
2023-04-27T19:08:29.061Z,36.28
2023-04-27T19:10:57.426Z,32.00
2023-04-27T19:13:25.533Z,32.25
2023-04-27T19:15:52.464Z,30.40
2023-04-27T19:18:19.867Z,34.92
2023-04-27T19:20:46.897Z,30.70
2023-04-27T19:23:14.189Z,33.60
2023-04-27T19:25:41.151Z,34.08
2023-04-27T19:28:08.190Z,35.10
2023-04-27T19:30:35.253Z,26.42
2023-04-27T19:33:03.303Z,33.20
2023-04-27T19:35:30.429Z,28.65
2023-04-27T19:37:57.422Z,28.75
2023-04-27T19:40:25.018Z,30.55
2023-04-27T19:42:52.011Z,33.53
2023-04-27T19:45:19.145Z,30.65
2023-04-27T19:47:46.356Z,25.08
2023-04-27T19:50:13.608Z,28.35
2023-04-27T19:52:40.801Z,29.33
2023-04-27T19:55:08.661Z,27.55
2023-04-27T19:57:35.700Z,24.60
2023-04-27T20:00:05.278Z,28.85
2023-04-27T20:02:32.500Z,27.40
2023-04-27T20:04:59.894Z,30.67
2023-04-27T20:07:27.108Z,32.90
2023-04-27T20:09:54.447Z,29.73
2023-04-27T20:12:43.457Z,28.88
2023-04-27T20:15:09.527Z,26.10
2023-04-27T20:17:36.855Z,36.05
2023-04-27T20:20:06.943Z,30.50
2023-04-27T20:22:34.139Z,30.85
2023-04-27T20:25:01.179Z,26.83
2023-04-27T20:27:28.250Z,31.48
2023-04-27T20:29:55.434Z,33.08
2023-04-27T20:32:22.432Z,27.90
2023-04-27T20:34:49.427Z,28.02
2023-04-27T20:37:17.130Z,31.58
2023-04-27T20:39:44.064Z,24.02
2023-04-27T20:42:12.775Z,36.15
2023-04-27T20:44:39.843Z,29.88
2023-04-27T20:47:06.757Z,29.38
2023-04-27T20:49:35.306Z,28.20
2023-04-27T20:52:03.066Z,20.77
2023-04-27T20:54:33.647Z,25.38
2023-04-27T20:57:04.053Z,30.58
2023-04-27T20:59:31.137Z,35.72
2023-04-27T21:01:58.643Z,28.30
2023-04-27T21:04:25.748Z,30.30
2023-04-27T21:06:53.396Z,24.50
2023-04-27T21:09:20.339Z,30.38
2023-04-27T21:11:47.806Z,26.40
2023-04-27T21:14:15.173Z,29.08
2023-04-27T21:16:42.691Z,38.95
2023-04-27T21:19:13.144Z,30.67
2023-04-27T21:21:40.391Z,24.58
2023-04-27T21:24:19.222Z,24.02
2023-04-27T21:26:46.555Z,32.42
2023-04-27T21:29:13.489Z,28.98
2023-04-27T21:31:40.582Z,35.60
2023-04-27T21:34:08.315Z,32.75
2023-04-27T21:36:35.765Z,24.20
2023-04-27T21:39:03.204Z,26.65
2023-04-27T21:41:30.406Z,25.65
2023-04-27T21:43:57.450Z,29.15
2023-04-27T21:46:24.637Z,26.35
2023-04-27T21:48:51.837Z,31.00
2023-04-27T21:51:19.910Z,33.55
2023-04-27T21:53:47.136Z,27.52
2023-04-27T21:56:14.315Z,26.90
2023-04-27T21:58:41.312Z,32.40
2023-04-27T22:01:08.212Z,28.23
2023-04-27T22:03:35.428Z,30.80
2023-04-27T22:06:02.531Z,38.28
2023-04-27T22:08:29.891Z,36.40
2023-04-27T22:10:57.749Z,29.15
2023-04-27T22:13:24.979Z,21.38
2023-04-27T22:15:52.507Z,27.30
2023-04-27T22:18:20.060Z,39.38
2023-04-27T22:20:47.425Z,33.08
2023-04-27T22:23:14.588Z,30.33
2023-04-27T22:25:43.333Z,31.45
2023-04-27T22:28:11.108Z,33.00
2023-04-27T22:30:38.808Z,33.10
2023-04-27T22:33:06.404Z,27.50
2023-04-27T22:35:36.635Z,37.53
2023-04-27T22:38:03.807Z,30.30
2023-04-27T22:40:30.921Z,31.77
2023-04-27T22:42:58.324Z,42.63
2023-04-27T22:45:25.234Z,30.20
2023-04-27T22:47:52.227Z,33.58
2023-04-27T22:50:19.558Z,29.17
2023-04-27T22:52:46.880Z,27.17
2023-04-27T22:55:13.798Z,30.70
2023-04-27T22:57:41.899Z,36.75
2023-04-27T23:00:11.825Z,32.97
2023-04-27T23:02:39.909Z,38.50
2023-04-27T23:05:07.686Z,34.67
2023-04-27T23:07:35.333Z,34.30
2023-04-27T23:10:03.336Z,36.00
2023-04-27T23:12:31.608Z,39.95
2023-04-27T23:14:59.338Z,35.72
2023-04-27T23:17:33.023Z,40.55
2023-04-27T23:20:01.814Z,42.20
2023-04-27T23:22:29.781Z,34.55
2023-04-27T23:24:56.798Z,41.05
2023-04-27T23:27:25.045Z,35.72
2023-04-27T23:29:52.953Z,34.70
2023-04-27T23:32:20.360Z,32.88
2023-04-27T23:34:48.026Z,34.97
2023-04-27T23:37:14.975Z,49.45
2023-04-27T23:39:42.144Z,29.48
2023-04-27T23:42:09.294Z,31.33
2023-04-27T23:44:36.263Z,38.88
2023-04-27T23:47:03.597Z,34.95
2023-04-27T23:49:30.533Z,30.38
2023-04-27T23:51:57.501Z,38.63
2023-04-27T23:54:24.585Z,39.17
2023-04-27T23:56:51.900Z,35.83
2023-04-27T23:59:19.202Z,29.58
